Time;durP1;ratioP1;P1;durP2;ratioP2;P2;SDS_P1;SDS_P2;PMS_P1;PMS_P2;Temp;Humidity;BMP_temperature;BMP_pressure;BME280_temperature;BME280_humidity;BME280_pressure;Samples;Min_cycle;Max_cycle;Signal;HPM_P1;HPM_P2
2022/08/31 00:05:08;;;;;;;7.13;6.47;;;;;;;21.54;nan;99586.06;5059566;28;20261;-74
2022/08/31 00:07:34;;;;;;;9.23;6.57;;;;;;;21.52;nan;99582.75;5050146;28;20506;-76
2022/08/31 00:10:10;;;;;;;7.80;7.10;;;;;;;21.49;nan;99588.56;5062914;28;19973;-75
2022/08/31 00:12:35;;;;;;;7.88;6.93;;;;;;;21.44;nan;99585.66;5063284;28;20083;-76
2022/08/31 00:15:01;;;;;;;7.22;6.53;;;;;;;21.43;nan;99588.56;5065274;28;19971;-77
2022/08/31 00:17:27;;;;;;;7.53;6.75;;;;;;;21.44;nan;99591.03;5057384;28;20047;-77
2022/08/31 00:19:52;;;;;;;8.52;7.47;;;;;;;21.36;nan;99593.97;5052660;28;20036;-76
2022/08/31 00:22:18;;;;;;;10.60;7.20;;;;;;;21.28;nan;99602.22;5042704;28;20040;-74
2022/08/31 00:24:44;;;;;;;11.40;6.40;;;;;;;21.25;nan;99605.34;5060273;28;19917;-75
2022/08/31 00:27:10;;;;;;;8.77;7.03;;;;;;;20.87;nan;99601.66;5060690;28;20043;-76
2022/08/31 00:29:38;;;;;;;9.23;7.10;;;;;;;20.87;nan;99598.97;5060833;28;20041;-76
2022/08/31 00:32:04;;;;;;;9.43;8.52;;;;;;;20.79;nan;99592.00;5052226;28;20029;-77
2022/08/31 00:34:29;;;;;;;9.77;8.82;;;;;;;20.79;nan;99587.41;5059494;28;20025;-76
2022/08/31 00:36:55;;;;;;;10.85;9.75;;;;;;;20.83;nan;99588.69;5054155;28;20081;-77
2022/08/31 00:39:21;;;;;;;11.32;10.32;;;;;;;20.88;nan;99585.38;5060966;28;20045;-77
2022/08/31 00:41:46;;;;;;;14.02;11.07;;;;;;;20.87;nan;99593.59;5057964;28;20033;-78
2022/08/31 00:44:12;;;;;;;13.23;11.93;;;;;;;20.93;nan;99584.72;5063361;28;20496;-78
2022/08/31 00:46:41;;;;;;;12.27;11.20;;;;;;;21.01;nan;99585.34;5057656;28;20028;-78
2022/08/31 00:49:16;;;;;;;11.57;10.20;;;;;;;21.03;nan;99588.63;5067437;28;20043;-76
2022/08/31 00:51:54;;;;;;;11.82;10.68;;;;;;;20.97;nan;99581.41;5059825;28;20397;-78
2022/08/31 00:54:29;;;;;;;11.43;10.43;;;;;;;20.92;nan;99575.03;5058264;28;20407;-78
2022/08/31 00:56:55;;;;;;;11.52;10.43;;;;;;;20.99;nan;99570.47;5046573;28;20440;-79
2022/08/31 00:59:22;;;;;;;11.82;10.73;;;;;;;21.04;nan;99568.00;5054700;28;20357;-78
2022/08/31 01:01:47;;;;;;;11.88;10.85;;;;;;;21.04;nan;99568.81;5038573;28;20025;-78
2022/08/31 01:04:14;;;;;;;11.05;10.05;;;;;;;21.09;nan;99568.19;5043893;28;20049;-79
2022/08/31 01:06:41;;;;;;;11.20;10.27;;;;;;;21.13;nan;99564.91;5025223;28;20033;-78
2022/08/31 01:09:08;;;;;;;10.15;9.32;;;;;;;21.15;nan;99559.31;5059947;28;20404;-78
2022/08/31 01:11:35;;;;;;;10.85;9.52;;;;;;;21.19;nan;99553.34;5058993;28;20036;-77
2022/08/31 01:14:01;;;;;;;9.90;8.90;;;;;;;21.18;nan;99543.66;5057891;28;20481;-76
2022/08/31 01:16:33;;;;;;;8.95;8.23;;;;;;;21.18;nan;99545.50;5036099;28;20037;-78
2022/08/31 01:19:04;;;;;;;9.48;8.50;;;;;;;21.12;nan;99544.47;5057158;28;20041;-78
2022/08/31 01:21:47;;;;;;;9.63;8.80;;;;;;;21.09;nan;99549.41;5037499;28;20116;-76
2022/08/31 01:24:14;;;;;;;9.18;8.50;;;;;;;21.09;nan;99550.22;5050879;28;20459;-77
2022/08/31 01:26:41;;;;;;;9.70;8.82;;;;;;;20.97;nan;99543.84;5059682;28;20052;-76
2022/08/31 01:29:06;;;;;;;9.30;8.60;;;;;;;20.97;nan;99545.75;5043323;28;20045;-78
2022/08/31 01:31:42;;;;;;;9.23;8.43;;;;;;;21.00;nan;99553.34;5048556;28;20032;-75
2022/08/31 01:34:08;;;;;;;9.85;8.32;;;;;;;21.03;nan;99555.63;5052131;28;20477;-77
2022/08/31 01:36:36;;;;;;;9.00;8.25;;;;;;;21.03;nan;99563.69;5054132;28;20056;-77
2022/08/31 01:39:04;;;;;;;9.32;8.52;;;;;;;20.99;nan;99557.06;5049716;28;20062;-77
2022/08/31 01:41:30;;;;;;;9.48;8.57;;;;;;;21.04;nan;99562.63;5054775;28;20036;-75
2022/08/31 01:43:56;;;;;;;10.30;9.35;;;;;;;21.05;nan;99565.09;5052929;28;20044;-78
2022/08/31 01:46:22;;;;;;;9.70;8.90;;;;;;;21.09;nan;99565.50;5058805;28;20056;-78
2022/08/31 01:48:48;;;;;;;9.38;8.68;;;;;;;21.07;nan;99564.91;5066489;28;20024;-78
2022/08/31 01:51:16;;;;;;;9.60;8.75;;;;;;;20.99;nan;99565.13;5047012;28;20037;-78
2022/08/31 01:53:43;;;;;;;10.48;9.55;;;;;;;20.97;nan;99562.63;5039496;28;20072;-79
2022/08/31 01:56:12;;;;;;;10.10;9.05;;;;;;;20.98;nan;99566.16;5064869;28;20429;-78
2022/08/31 01:58:38;;;;;;;10.20;9.20;;;;;;;20.94;nan;99567.59;5042456;28;20037;-77
2022/08/31 02:01:15;;;;;;;10.27;9.27;;;;;;;20.96;nan;99573.59;5045537;28;20060;-78
2022/08/31 02:03:41;;;;;;;10.70;9.60;;;;;;;20.94;nan;99567.59;5050655;28;20060;-78
2022/08/31 02:06:08;;;;;;;10.27;9.25;;;;;;;20.94;nan;99575.66;5062739;28;20039;-79
2022/08/31 02:08:35;;;;;;;10.90;9.77;;;;;;;20.87;nan;99577.50;5052682;28;20036;-77
2022/08/31 02:11:00;;;;;;;10.13;9.13;;;;;;;20.81;nan;99574.63;5034742;28;20060;-78
2022/08/31 02:13:26;;;;;;;8.73;7.95;;;;;;;20.77;nan;99576.09;5048458;28;20619;-77
2022/08/31 02:15:52;;;;;;;8.73;8.02;;;;;;;20.75;nan;99580.84;5061166;28;20473;-77
2022/08/31 02:18:17;;;;;;;9.95;8.60;;;;;;;20.79;nan;99571.34;5062317;28;20037;-78
2022/08/31 02:20:44;;;;;;;9.32;8.18;;;;;;;20.76;nan;99563.72;5032092;28;20025;-78
2022/08/31 02:23:10;;;;;;;11.77;8.55;;;;;;;20.73;nan;99556.09;5062209;28;20029;-76
2022/08/31 02:25:35;;;;;;;8.75;8.15;;;;;;;20.75;nan;99547.81;5060701;28;20031;-77
2022/08/31 02:28:02;;;;;;;9.70;8.75;;;;;;;20.75;nan;99548.66;5049456;28;20021;-78
2022/08/31 02:30:28;;;;;;;9.15;8.45;;;;;;;20.81;nan;99545.13;5038293;28;20033;-78
2022/08/31 02:32:53;;;;;;;9.43;8.63;;;;;;;20.83;nan;99545.75;5063671;28;20037;-78
2022/08/31 02:35:19;;;;;;;9.40;8.40;;;;;;;20.81;nan;99537.09;5062784;28;20497;-77
2022/08/31 02:37:47;;;;;;;10.43;9.45;;;;;;;20.69;nan;99544.13;5056988;28;20089;-77
2022/08/31 02:40:13;;;;;;;9.30;8.52;;;;;;;20.52;nan;99537.53;5045658;28;20512;-79
2022/08/31 02:42:40;;;;;;;9.63;8.60;;;;;;;20.46;nan;99538.38;5045318;28;20042;-78
2022/08/31 02:45:06;;;;;;;10.50;9.55;;;;;;;20.26;nan;99543.69;5042185;28;20021;-77
2022/08/31 02:47:32;;;;;;;11.63;10.40;;;;;;;19.97;nan;99534.16;5045806;28;20040;-78
2022/08/31 02:50:21;;;;;;;11.98;10.95;;;;;;;19.93;nan;99537.47;5065652;28;20056;-77
2022/08/31 02:52:47;;;;;;;11.77;10.77;;;;;;;19.99;nan;99532.13;5041835;28;20042;-75
2022/08/31 02:55:13;;;;;;;12.25;11.15;;;;;;;19.93;nan;99532.94;5057628;28;20044;-77
2022/08/31 02:57:38;;;;;;;12.85;11.45;;;;;;;19.86;nan;99537.44;5048759;28;20035;-76
2022/08/31 03:00:06;;;;;;;12.40;11.20;;;;;;;19.84;nan;99528.81;5043045;28;20481;-76
2022/08/31 03:02:32;;;;;;;11.98;10.98;;;;;;;19.76;nan;99525.50;5050491;28;20090;-77
2022/08/31 03:05:06;;;;;;;12.32;11.13;;;;;;;19.77;nan;99533.31;5046060;28;20041;-77
2022/08/31 03:07:35;;;;;;;12.68;11.48;;;;;;;19.77;nan;99533.31;5049357;28;20029;-77
2022/08/31 03:10:01;;;;;;;13.32;12.13;;;;;;;19.85;nan;99532.31;5061236;28;20033;-75
2022/08/31 03:12:27;;;;;;;13.77;12.55;;;;;;;19.96;nan;99537.91;5063481;28;20113;-77
2022/08/31 03:14:54;;;;;;;13.43;12.27;;;;;;;19.98;nan;99533.16;5031057;28;20036;-75
2022/08/31 03:17:19;;;;;;;13.98;12.68;;;;;;;19.94;nan;99539.94;5043290;28;20044;-77
2022/08/31 03:19:46;;;;;;;13.60;12.30;;;;;;;20.00;nan;99549.03;5039775;28;20087;-77
2022/08/31 03:22:13;;;;;;;15.07;12.68;;;;;;;19.97;nan;99539.53;5038951;28;20493;-78
2022/08/31 03:24:39;;;;;;;13.98;12.68;;;;;;;19.92;nan;99547.34;5043759;28;20033;-77
2022/08/31 03:27:05;;;;;;;13.93;12.52;;;;;;;19.78;nan;99545.69;5060223;28;20035;-78
2022/08/31 03:29:30;;;;;;;14.73;13.10;;;;;;;19.78;nan;99544.88;5059954;28;20100;-77
2022/08/31 03:32:01;;;;;;;15.25;12.60;;;;;;;19.84;nan;99550.25;5059733;28;20062;-77
2022/08/31 03:34:27;;;;;;;13.52;12.20;;;;;;;19.84;nan;99547.56;5039007;28;20074;-78
2022/08/31 03:36:53;;;;;;;17.15;13.27;;;;;;;19.78;nan;99545.69;5050903;28;20072;-78
2022/08/31 03:39:19;;;;;;;13.50;12.23;;;;;;;19.62;nan;99557.56;5044148;28;20052;-76
2022/08/31 03:41:45;;;;;;;14.32;12.55;;;;;;;19.41;nan;99548.81;5041470;28;20021;-75
2022/08/31 03:44:11;;;;;;;14.20;12.70;;;;;;;19.33;nan;99554.31;5041774;28;20078;-77
2022/08/31 03:46:44;;;;;;;14.02;12.55;;;;;;;19.48;nan;99555.06;5037655;28;20098;-77
2022/08/31 03:49:11;;;;;;;14.02;12.77;;;;;;;19.61;nan;99560.47;5060823;28;20043;-76
2022/08/31 03:51:44;;;;;;;13.20;11.80;;;;;;;19.67;nan;99565.03;5044494;28;20067;-76
2022/08/31 03:54:11;;;;;;;14.25;12.07;;;;;;;19.66;nan;99568.72;5061086;28;20037;-77
2022/08/31 03:56:37;;;;;;;12.65;11.23;;;;;;;19.69;nan;99565.63;5042605;28;20021;-77
2022/08/31 03:59:06;;;;;;;12.93;11.57;;;;;;;19.62;nan;99567.44;5040882;28;20032;-77
2022/08/31 04:01:58;;;;;;;11.82;10.73;;;;;;;19.47;nan;99558.75;5058385;28;20045;-76
2022/08/31 04:04:42;;;;;;;11.57;10.52;;;;;;;19.45;nan;99552.72;5058267;28;20068;-76
2022/08/31 04:07:26;;;;;;;10.93;9.82;;;;;;;19.59;nan;99557.97;5050310;28;20099;-77
2022/08/31 04:10:13;;;;;;;11.10;10.05;;;;;;;19.73;nan;99553.50;5052182;28;20071;-76
2022/08/31 04:13:17;;;;;;;10.52;9.73;;;;;;;19.84;nan;99555.59;4964075;28;20114;-77
2022/08/31 04:16:02;;;;;;;11.70;10.05;;;;;;;19.92;nan;99547.34;4954395;28;20299;-76
2022/08/31 04:18:46;;;;;;;10.00;9.05;;;;;;;19.91;nan;99553.72;4962091;28;20051;-76
2022/08/31 04:21:24;;;;;;;10.43;9.60;;;;;;;19.83;nan;99556.63;4955766;28;20043;-78
2022/08/31 04:23:51;;;;;;;9.82;8.93;;;;;;;19.85;nan;99556.41;4940578;28;20576;-75
2022/08/31 04:26:21;;;;;;;10.18;8.95;;;;;;;19.90;nan;99562.00;4961616;28;20063;-76
2022/08/31 04:28:47;;;;;;;10.52;9.68;;;;;;;19.94;nan;99564.06;4962266;28;20038;-76
2022/08/31 04:31:14;;;;;;;10.15;9.35;;;;;;;20.00;nan;99557.88;4964664;28;20051;-78
2022/08/31 04:33:40;;;;;;;11.18;10.07;;;;;;;20.01;nan;99570.25;4962395;28;20031;-78
2022/08/31 04:36:09;;;;;;;10.52;9.55;;;;;;;19.92;nan;99560.75;4959574;28;20078;-76
2022/08/31 04:38:35;;;;;;;10.63;9.48;;;;;;;19.88;nan;99561.34;4948279;29;20039;-79
2022/08/31 04:41:08;;;;;;;10.90;9.70;;;;;;;19.85;nan;99551.88;4937466;29;20035;-77
2022/08/31 04:43:36;;;;;;;10.35;9.43;;;;;;;19.81;nan;99557.84;4974471;28;20045;-77
2022/08/31 04:46:07;;;;;;;10.82;8.50;;;;;;;19.76;nan;99558.44;5015219;28;20458;-77
2022/08/31 04:48:35;;;;;;;10.10;9.23;;;;;;;19.69;nan;99562.94;5039110;28;20056;-78
2022/08/31 04:51:08;;;;;;;11.18;9.98;;;;;;;19.53;nan;99563.31;5043287;28;20036;-77
2022/08/31 04:53:35;;;;;;;13.07;10.80;;;;;;;19.30;nan;99563.59;5026131;28;20509;-78
2022/08/31 04:56:14;;;;;;;11.85;10.70;;;;;;;19.20;nan;99558.59;5032769;28;20025;-77
2022/08/31 04:58:48;;;;;;;13.63;11.60;;;;;;;19.18;nan;99562.50;5020713;28;20067;-78
2022/08/31 05:01:19;;;;;;;11.98;10.88;;;;;;;19.21;nan;99565.59;5044410;28;20646;-77
2022/08/31 05:04:04;;;;;;;12.45;11.20;;;;;;;19.39;nan;99572.25;5047280;28;20056;-76
2022/08/31 05:06:33;;;;;;;11.85;10.85;;;;;;;19.48;nan;99576.47;5023586;28;20029;-77
2022/08/31 05:09:16;;;;;;;10.90;9.90;;;;;;;19.55;nan;99588.03;5003330;28;20032;-75
2022/08/31 05:11:46;;;;;;;11.30;10.20;;;;;;;19.56;nan;99576.28;5037549;28;20520;-75
2022/08/31 05:14:11;;;;;;;11.35;10.35;;;;;;;19.60;nan;99583.72;5024502;28;20032;-74
2022/08/31 05:16:42;;;;;;;11.43;9.68;;;;;;;19.62;nan;99581.66;5028127;28;20376;-74
2022/08/31 05:19:08;;;;;;;10.73;9.88;;;;;;;19.70;nan;99586.03;5038140;28;20060;-74
2022/08/31 05:21:37;;;;;;;11.23;10.13;;;;;;;19.70;nan;99583.34;5050516;28;20036;-75
2022/08/31 05:24:08;;;;;;;11.77;9.80;;;;;;;19.62;nan;99583.50;5040544;28;20550;-74
2022/08/31 05:26:39;;;;;;;11.10;9.93;;;;;;;19.56;nan;99579.78;5048860;28;20492;-75
2022/08/31 05:29:06;;;;;;;;;;;;;;;19.24;nan;99585.78;5029482;28;20108;-75
2022/08/31 05:31:32;;;;;;;16.35;11.25;;;;;;;19.02;nan;99587.72;5044844;28;19924;-75
2022/08/31 05:33:59;;;;;;;13.25;11.95;;;;;;;18.89;nan;99587.63;5032555;28;20473;-75
2022/08/31 05:36:35;;;;;;;11.90;10.80;;;;;;;18.91;nan;99593.59;5044208;28;20041;-75
2022/08/31 05:39:01;;;;;;;12.98;11.73;;;;;;;19.00;nan;99605.81;5049197;28;20124;-75
2022/08/31 05:41:28;;;;;;;13.18;11.63;;;;;;;18.82;nan;99608.13;5049966;28;20048;-76
2022/08/31 05:43:54;;;;;;;12.60;11.32;;;;;;;18.88;nan;99601.19;5048886;28;20025;-73
2022/08/31 05:46:20;;;;;;;15.65;12.13;;;;;;;18.96;nan;99598.38;5049000;28;20059;-75
2022/08/31 05:48:46;;;;;;;11.95;10.85;;;;;;;19.09;nan;99615.31;5048704;28;20059;-72
2022/08/31 05:51:15;;;;;;;11.93;10.82;;;;;;;19.25;nan;99610.69;5050083;28;20497;-73
2022/08/31 05:53:41;;;;;;;12.70;11.50;;;;;;;19.36;nan;99610.97;5050130;28;20542;-71
2022/08/31 05:56:14;;;;;;;11.23;10.07;;;;;;;19.38;nan;99613.44;5050957;28;20059;-71
2022/08/31 05:58:42;;;;;;;13.65;11.50;;;;;;;19.48;nan;99611.25;5049881;28;20433;-76
2022/08/31 06:01:20;;;;;;;12.00;10.77;;;;;;;19.56;nan;99614.56;5048308;28;20043;-74
2022/08/31 06:04:02;;;;;;;11.25;10.15;;;;;;;19.65;nan;99622.44;5048443;28;20052;-73
2022/08/31 06:06:28;;;;;;;12.55;11.23;;;;;;;19.64;nan;99626.97;5048885;28;20029;-73
2022/08/31 06:08:56;;;;;;;12.68;11.38;;;;;;;19.67;nan;99633.78;5049908;28;20485;-73
2022/08/31 06:11:24;;;;;;;13.70;11.30;;;;;;;19.66;nan;99630.28;5048294;28;20511;-72
2022/08/31 06:13:53;;;;;;;13.90;10.90;;;;;;;19.65;nan;99638.50;5048245;28;20764;-72
2022/08/31 06:16:20;;;;;;;12.02;10.88;;;;;;;19.62;nan;99637.03;5048830;28;20056;-72
2022/08/31 06:18:49;;;;;;;12.05;10.98;;;;;;;19.72;nan;99642.88;5048165;28;20338;-72
2022/08/31 06:21:22;;;;;;;12.43;11.30;;;;;;;19.75;nan;99642.47;5050155;28;20065;-72
2022/08/31 06:23:50;;;;;;;12.75;11.45;;;;;;;19.81;nan;99644.34;5049696;28;20438;-72
2022/08/31 06:26:18;;;;;;;11.73;10.55;;;;;;;19.82;nan;99643.31;5050015;28;20396;-72
2022/08/31 06:28:48;;;;;;;13.23;11.35;;;;;;;19.84;nan;99652.00;5044581;28;20060;-72
2022/08/31 06:31:17;;;;;;;14.52;10.93;;;;;;;19.88;nan;99653.25;5047423;28;20041;-73
2022/08/31 06:33:43;;;;;;;12.70;11.48;;;;;;;19.87;nan;99661.47;5048124;28;20186;-73
2022/08/31 06:36:37;;;;;;;14.30;12.23;;;;;;;19.79;nan;99659.78;5047441;28;20042;-73
2022/08/31 06:39:22;;;;;;;14.57;11.60;;;;;;;19.80;nan;99656.06;5051035;28;20052;-73
2022/08/31 06:42:08;;;;;;;13.23;12.02;;;;;;;19.86;nan;99657.97;5018654;28;20499;-73
2022/08/31 06:44:56;;;;;;;14.15;12.77;;;;;;;19.84;nan;99661.88;5052895;28;20052;-73
2022/08/31 06:47:42;;;;;;;13.95;12.65;;;;;;;19.86;nan;99655.28;5051633;28;20045;-73
2022/08/31 06:50:12;;;;;;;14.93;12.85;;;;;;;19.92;nan;99654.47;5026542;28;20041;-73
2022/08/31 06:52:38;;;;;;;16.33;13.48;;;;;;;19.98;nan;99650.16;5021717;28;20117;-74
2022/08/31 06:55:14;;;;;;;13.88;12.68;;;;;;;19.99;nan;99655.34;5016867;28;20497;-73
2022/08/31 06:57:58;;;;;;;13.70;12.35;;;;;;;20.08;nan;99652.50;5029615;28;20079;-74
2022/08/31 07:00:42;;;;;;;15.43;13.32;;;;;;;20.13;nan;99650.03;5049208;28;20043;-73
2022/08/31 07:03:31;;;;;;;15.82;13.57;;;;;;;20.23;nan;99650.47;5048139;28;20047;-74
2022/08/31 07:06:03;;;;;;;15.25;13.65;;;;;;;20.29;nan;99655.00;5051400;28;20033;-76
2022/08/31 07:08:29;;;;;;;18.30;13.90;;;;;;;20.28;nan;99638.09;5037765;28;20029;-75
2022/08/31 07:10:55;;;;;;;15.98;13.80;;;;;;;20.39;nan;99639.38;5023327;28;20033;-76
2022/08/31 07:13:20;;;;;;;15.00;13.50;;;;;;;20.44;nan;99636.91;5054260;28;20041;-76
2022/08/31 07:15:46;;;;;;;14.60;13.07;;;;;;;20.53;nan;99630.34;5037829;28;20039;-78
2022/08/31 07:18:12;;;;;;;14.55;13.00;;;;;;;20.59;nan;99629.53;5037809;28;20033;-78
2022/08/31 07:20:39;;;;;;;13.95;11.75;;;;;;;20.63;nan;99630.75;5053907;28;20033;-76
2022/08/31 07:23:07;;;;;;;16.10;13.70;;;;;;;20.59;nan;99634.06;5051274;28;20064;-76
2022/08/31 07:25:39;;;;;;;15.68;13.98;;;;;;;20.69;nan;99629.94;5036088;28;20045;-75
2022/08/31 07:28:05;;;;;;;14.23;12.82;;;;;;;20.75;nan;99634.47;5035429;28;20112;-76
2022/08/31 07:30:35;;;;;;;12.48;11.38;;;;;;;20.88;nan;99627.44;5053144;28;20016;-78
2022/08/31 07:33:03;;;;;;;16.45;13.40;;;;;;;21.01;nan;99628.28;5035598;28;20029;-77
2022/08/31 07:35:30;;;;;;;13.93;12.10;;;;;;;21.11;nan;99625.16;5027445;28;20076;-72
2022/08/31 07:43:39;;;;;;;11.23;10.23;;;;;;;21.47;nan;99633.56;5028463;28;20055;-73
2022/08/31 07:46:05;;;;;;;12.90;11.27;;;;;;;21.59;nan;99631.88;5044420;28;20140;-73
2022/08/31 07:48:32;;;;;;;14.20;12.60;;;;;;;21.65;nan;99631.03;5017244;28;20116;-74
2022/08/31 07:51:07;;;;;;;14.20;11.88;;;;;;;21.65;nan;99641.78;5026208;28;20154;-76
2022/08/31 07:53:54;;;;;;;13.75;12.43;;;;;;;21.64;nan;99645.50;4995174;28;20122;-76
2022/08/31 07:56:48;;;;;;;16.75;13.15;;;;;;;21.68;nan;99655.81;5034286;28;20049;-78
2022/08/31 07:59:20;;;;;;;14.68;13.15;;;;;;;21.69;nan;99657.44;5026813;28;20071;-79
2022/08/31 08:01:48;;;;;;;13.52;12.30;;;;;;;21.75;nan;99653.91;5034235;28;20604;-80
2022/08/31 08:04:24;;;;;;;16.30;12.82;;;;;;;21.74;nan;99654.94;5029085;28;20090;-79
2022/08/31 08:07:18;;;;;;;13.68;11.90;;;;;;;21.80;nan;99648.72;5044721;28;20037;-79
2022/08/31 08:10:04;;;;;;;11.73;9.90;;;;;;;21.89;nan;99642.94;5036868;28;20021;-75
2022/08/31 08:13:02;;;;;;;12.32;11.10;;;;;;;21.99;nan;99653.22;4991935;28;20046;-74
2022/08/31 08:15:49;;;;;;;14.70;12.70;;;;;;;22.04;nan;99656.09;5043817;28;20043;-76
2022/08/31 08:18:38;;;;;;;13.75;12.35;;;;;;;22.01;nan;99651.16;5047621;28;20078;-76
2022/08/31 08:21:04;;;;;;;13.48;12.18;;;;;;;22.02;nan;99659.03;5043098;28;20341;-75
2022/08/31 08:23:30;;;;;;;12.48;11.25;;;;;;;22.13;nan;99654.00;5044242;28;20029;-75
2022/08/31 08:26:10;;;;;;;11.65;9.68;;;;;;;22.30;nan;99650.59;5043796;28;20030;-75
2022/08/31 08:29:12;;;;;;;11.40;10.30;;;;;;;22.50;nan;99649.66;5015943;28;20042;-74
2022/08/31 08:31:41;;;;;;;9.82;8.93;;;;;;;22.62;nan;99647.91;5043799;28;20116;-74
2022/08/31 08:34:09;;;;;;;10.20;9.23;;;;;;;22.73;nan;99647.22;5017795;28;20091;-75
2022/08/31 08:36:36;;;;;;;10.05;9.07;;;;;;;22.75;nan;99647.81;5044381;28;20037;-74
2022/08/31 08:39:05;;;;;;;7.28;6.68;;;;;;;22.85;nan;99654.34;5034402;28;20573;-74
2022/08/31 08:41:35;;;;;;;8.70;7.28;;;;;;;22.99;nan;99652.38;5038033;28;20033;-77
2022/08/31 08:44:06;;;;;;;10.73;9.65;;;;;;;23.07;nan;99652.09;5044269;28;20032;-77
2022/08/31 08:46:38;;;;;;;10.85;9.20;;;;;;;23.06;nan;99650.44;5021230;28;20033;-74
2022/08/31 08:49:14;;;;;;;7.78;6.97;;;;;;;23.20;nan;99656.53;5042200;28;20094;-75
2022/08/31 08:51:41;;;;;;;11.20;8.63;;;;;;;23.28;nan;99651.69;5016410;28;20041;-74
2022/08/31 08:54:11;;;;;;;11.73;10.02;;;;;;;23.31;nan;99663.88;5024945;28;20517;-76
2022/08/31 08:56:46;;;;;;;9.90;9.00;;;;;;;23.26;nan;99667.25;5044423;28;20111;-74
2022/08/31 08:59:15;;;;;;;8.68;7.95;;;;;;;23.28;nan;99662.44;5022401;28;20037;-76
2022/08/31 09:01:46;;;;;;;14.02;9.10;;;;;;;23.35;nan;99665.06;5029054;28;20064;-74
2022/08/31 09:04:22;;;;;;;9.93;7.88;;;;;;;23.37;nan;99664.88;5014892;28;20541;-74
2022/08/31 09:07:16;;;;;;;12.40;8.02;;;;;;;23.46;nan;99650.03;5024382;28;20037;-74
2022/08/31 09:10:00;;;;;;;7.75;6.97;;;;;;;23.64;nan;99658.16;5037611;28;20029;-75
2022/08/31 09:12:47;;;;;;;;;;;;;;;23.76;nan;99660.94;5044700;28;20119;-74
2022/08/31 09:15:14;;;;;;;;;;;;;;;23.83;nan;99667.06;5028284;28;20291;-74
2022/08/31 09:17:45;;;;;;;;;;;;;;;23.90;nan;99674.03;5035219;28;19925;-74
2022/08/31 09:20:12;;;;;;;;;;;;;;;23.93;nan;99667.34;5019510;28;19946;-75
2022/08/31 09:22:57;;;;;;;;;;;;;;;24.08;nan;99663.22;5046243;28;19933;-73
2022/08/31 09:25:33;;;;;;;;;;;;;;;24.27;nan;99663.22;5043039;28;20390;-73
2022/08/31 09:28:32;;;;;;;;;;;;;;;24.41;nan;99659.28;5031301;28;20396;-73
2022/08/31 09:30:58;;;;;;;;;;;;;;;24.46;nan;99656.69;5043268;28;20023;-73
2022/08/31 09:33:25;;;;;;;;;;;;;;;24.49;nan;99661.66;5025014;28;20071;-74
2022/08/31 09:36:11;;;;;;;;;;;;;;;24.49;nan;99656.25;5045165;28;19960;-74
2022/08/31 09:38:39;;;;;;;;;;;;;;;24.57;nan;99650.50;5026635;28;19929;-74
2022/08/31 09:41:23;;;;;;;;;;;;;;;24.53;nan;99654.72;5043013;28;19928;-74
2022/08/31 09:43:48;;;;;;;;;;;;;;;24.50;nan;99647.13;5019243;28;19956;-75
2022/08/31 09:46:29;;;;;;;;;;;;;;;24.47;nan;99644.84;5042584;28;19970;-74
2022/08/31 09:48:57;;;;;;;;;;;;;;;24.45;nan;99644.25;5037149;28;20070;-74
2022/08/31 09:51:25;;;;;;;;;;;;;;;24.44;nan;99638.06;5036693;28;19932;-75
2022/08/31 09:56:54;;;;;;;;;;;;;;;24.61;nan;99638.22;5035014;28;19917;-73
2022/08/31 09:59:36;;;;;;;;;;;;;;;24.53;nan;99635.84;5040832;28;20004;-72
2022/08/31 10:02:06;;;;;;;;;;;;;;;24.67;nan;99631.91;5038721;28;20451;-75
2022/08/31 10:04:36;;;;;;;;;;;;;;;24.91;nan;99621.97;5035263;28;20483;-73
2022/08/31 10:07:23;;;;;;;;;;;;;;;25.07;nan;99615.06;5031546;28;19925;-74
2022/08/31 10:10:09;;;;;;;;;;;;;;;25.12;nan;99607.06;5035855;28;20662;-74
2022/08/31 10:12:40;;;;;;;;;;;;;;;25.10;nan;99601.88;5038582;28;20399;-74
2022/08/31 10:15:13;;;;;;;;;;;;;;;25.13;nan;99600.59;5040243;28;19979;-74
2022/08/31 10:17:47;;;;;;;;;;;;;;;25.19;nan;99599.66;5033296;28;19993;-74
2022/08/31 10:20:20;;;;;;;;;;;;;;;25.33;nan;99598.34;5020541;28;20338;-74
2022/08/31 10:22:56;;;;;;;;;;;;;;;25.44;nan;99597.53;5041170;28;19925;-74
2022/08/31 10:25:31;;;;;;;;;;;;;;;25.50;nan;99593.88;5032385;28;19966;-73
2022/08/31 10:28:02;;;;;;;;;;;;;;;25.61;nan;99595.75;5038523;28;19936;-74
2022/08/31 10:30:33;;;;;;;;;;;;;;;25.72;nan;99590.53;5039292;28;19964;-74
2022/08/31 10:33:03;;;;;;;;;;;;;;;25.77;nan;99593.34;5043315;28;19929;-74
2022/08/31 10:35:36;;;;;;;;;;;;;;;25.76;nan;99576.28;4345034;28;10000556;-74
2022/08/31 10:38:25;;;;;;;;;;;;;;;25.80;nan;99576.66;5048504;28;19925;-74
2022/08/31 10:40:59;;;;;;;;;;;;;;;25.90;nan;99574.13;5027803;28;20376;-74
2022/08/31 10:43:30;;;;;;;;;;;;;;;25.88;nan;99570.84;5047076;28;20020;-74
2022/08/31 10:45:56;;;;;;;;;;;;;;;25.80;nan;99571.25;5049875;28;20369;-72
2022/08/31 10:48:23;;;;;;;;;;;;;;;25.78;nan;99571.47;5052855;28;19921;-74
2022/08/31 10:50:55;;;;;;;;;;;;;;;25.76;nan;99570.06;5053400;28;19924;-75
2022/08/31 10:53:33;;;;;;;;;;;;;;;25.82;nan;99564.53;5051872;28;19928;-73
2022/08/31 10:56:38;;;;;;;;;;;;;;;25.80;nan;99563.94;5052157;28;19935;-73
2022/08/31 10:59:23;;;;;;;;;;;;;;;25.86;nan;99559.47;4969154;28;20076;-76
2022/08/31 11:01:59;;;;;;;;;;;;;;;25.93;nan;99555.53;5047372;28;20544;-75
2022/08/31 11:04:24;;;;;;;;;;;;;;;25.97;nan;99545.91;5054319;28;20273;-76
2022/08/31 11:07:11;;;;;;;;;;;;;;;25.96;nan;99554.25;5058162;28;19928;-75
2022/08/31 11:09:36;;;;;;;;;;;;;;;26.02;nan;99558.69;5053673;28;19928;-76
2022/08/31 11:12:14;;;;;;;;;;;;;;;25.90;nan;99549.81;5058085;28;19932;-78
2022/08/31 11:15:07;;;;;;;;;;;;;;;25.78;nan;99547.16;5025666;28;20253;-75
2022/08/31 11:17:33;;;;;;;;;;;;;;;25.90;nan;99544.41;5013254;28;20265;-74
2022/08/31 11:20:39;;;;;;;;;;;;;;;25.92;nan;99548.47;5052458;28;19938;-75
2022/08/31 11:23:15;;;;;;;;;;;;;;;25.92;nan;99544.97;5055566;28;19924;-74
2022/08/31 11:25:46;;;;;;;;;;;;;;;25.91;nan;99543.34;5032325;28;19963;-77
2022/08/31 11:28:27;;;;;;;;;;;;;;;25.93;nan;99539.31;5023615;28;20333;-75
2022/08/31 11:30:53;;;;;;;;;;;;;;;25.89;nan;99530.06;5050319;28;19935;-75
2022/08/31 11:33:23;;;;;;;;;;;;;;;25.83;nan;99530.19;5055137;28;19928;-76
2022/08/31 11:35:59;;;;;;;;;;;;;;;25.83;nan;99522.09;5042937;28;20054;-76
2022/08/31 11:38:55;;;;;;;;;;;;;;;25.93;nan;99527.69;5035120;28;19928;-77
2022/08/31 11:41:27;;;;;;;;;;;;;;;26.07;nan;99529.03;5042863;28;20463;-76
2022/08/31 11:43:53;;;;;;;;;;;;;;;26.08;nan;99514.44;5053243;28;19928;-76
2022/08/31 11:46:24;;;;;;;;;;;;;;;26.15;nan;99517.81;5053800;28;20296;-78
2022/08/31 11:48:50;;;;;;;;;;;;;;;26.28;nan;99517.50;5035181;28;20313;-77
2022/08/31 11:51:32;;;;;;;;;;;;;;;26.42;nan;99524.25;5035394;28;19944;-77
2022/08/31 11:54:00;;;;;;;;;;;;;;;26.54;nan;99517.91;5035711;28;20585;-75
2022/08/31 11:56:35;;;;;;;;;;;;;;;26.57;nan;99517.44;5052282;28;19929;-76
2022/08/31 11:59:19;;;;;;;;;;;;;;;26.62;nan;99514.81;5050233;28;20451;-77
2022/08/31 12:01:44;;;;;;;;;;;;;;;26.61;nan;99511.28;5048591;28;19931;-76
2022/08/31 12:04:28;;;;;;;;;;;;;;;26.59;nan;99509.88;5048570;28;19921;-77
2022/08/31 12:06:59;;;;;;;;;;;;;;;26.52;nan;99514.63;5051970;28;19921;-76
2022/08/31 12:09:31;;;;;;;;;;;;;;;26.51;nan;99491.38;5052563;28;20219;-77
2022/08/31 12:12:05;;;;;;;;;;;;;;;26.58;nan;99494.69;5048890;28;20274;-78
2022/08/31 12:14:59;;;;;;;;;;;;;;;26.58;nan;99492.81;5050944;28;19920;-76
2022/08/31 12:17:25;;;;;;;;;;;;;;;26.73;nan;99494.94;4977777;28;20346;-75
2022/08/31 12:19:59;;;;;;;;;;;;;;;26.95;nan;99500.41;5048669;28;19921;-78
2022/08/31 12:25:36;;;;;;;;;;;;;;;27.40;nan;99489.31;5050175;28;19925;-77
2022/08/31 12:28:34;;;;;;;;;;;;;;;27.45;nan;99489.38;5048846;28;19964;-75
2022/08/31 12:31:02;;;;;;;;;;;;;;;27.35;nan;99486.53;5018171;28;20396;-76
2022/08/31 12:33:29;;;;;;;;;;;;;;;27.47;nan;99481.78;5044790;28;19921;-78
2022/08/31 12:36:10;;;;;;;;;;;;;;;27.65;nan;99486.91;5058145;28;19951;-76
2022/08/31 12:38:35;;;;;;;;;;;;;;;27.93;nan;99475.78;5048109;28;20317;-77
2022/08/31 12:41:02;;;;;;;;;;;;;;;28.21;nan;99473.91;5050951;28;20015;-76